sensor_id;sensor_type;location;lat;lon;timestamp;pressure;altitude;pressure_sealevel;temperature;humidity
12969;BME280;6549;53.128;8.182;2023-07-29T00:01:26;100471.16;;;18.31;100.00
12969;BME280;6549;53.128;8.182;2023-07-29T00:04:26;100465.25;;;18.29;100.00
12969;BME280;6549;53.128;8.182;2023-07-29T00:07:27;100457.34;;;18.28;100.00
12969;BME280;6549;53.128;8.182;2023-07-29T00:10:27;100455.88;;;18.23;100.00
12969;BME280;6549;53.128;8.182;2023-07-29T00:13:27;100456.00;;;18.20;100.00
12969;BME280;6549;53.128;8.182;2023-07-29T00:16:28;100449.00;;;18.15;100.00
12969;BME280;6549;53.128;8.182;2023-07-29T00:19:28;100443.31;;;18.06;100.00
12969;BME280;6549;53.128;8.182;2023-07-29T00:22:28;100441.66;;;17.96;100.00
12969;BME280;6549;53.128;8.182;2023-07-29T00:25:29;100445.09;;;17.87;100.00
12969;BME280;6549;53.128;8.182;2023-07-29T00:28:29;100448.84;;;17.81;100.00
12969;BME280;6549;53.128;8.182;2023-07-29T00:31:29;100452.53;;;17.78;100.00
12969;BME280;6549;53.128;8.182;2023-07-29T00:34:30;100442.28;;;17.75;100.00
12969;BME280;6549;53.128;8.182;2023-07-29T00:37:31;100435.19;;;17.74;100.00
12969;BME280;6549;53.128;8.182;2023-07-29T00:40:35;100429.28;;;17.72;100.00
12969;BME280;6549;53.128;8.182;2023-07-29T00:43:35;100435.06;;;17.65;100.00
12969;BME280;6549;53.128;8.182;2023-07-29T00:46:37;100434.03;;;17.59;100.00
12969;BME280;6549;53.128;8.182;2023-07-29T00:49:38;100435.06;;;17.48;100.00
12969;BME280;6549;53.128;8.182;2023-07-29T00:52:38;100429.47;;;17.36;100.00
12969;BME280;6549;53.128;8.182;2023-07-29T00:55:39;100436.03;;;17.29;100.00
12969;BME280;6549;53.128;8.182;2023-07-29T00:58:39;100433.78;;;17.24;100.00
12969;BME280;6549;53.128;8.182;2023-07-29T01:01:40;100434.31;;;17.19;100.00
12969;BME280;6549;53.128;8.182;2023-07-29T01:04:40;100429.66;;;17.16;100.00
12969;BME280;6549;53.128;8.182;2023-07-29T01:14:34;100424.63;;;17.11;100.00
12969;BME280;6549;53.128;8.182;2023-07-29T01:17:42;100419.50;;;17.10;100.00
12969;BME280;6549;53.128;8.182;2023-07-29T01:20:43;100426.34;;;17.05;100.00
12969;BME280;6549;53.128;8.182;2023-07-29T01:23:44;100424.09;;;17.00;100.00
12969;BME280;6549;53.128;8.182;2023-07-29T01:26:44;100423.44;;;16.96;100.00
12969;BME280;6549;53.128;8.182;2023-07-29T01:29:44;100419.88;;;16.95;100.00
12969;BME280;6549;53.128;8.182;2023-07-29T01:32:54;100416.78;;;16.93;100.00
12969;BME280;6549;53.128;8.182;2023-07-29T01:36:22;100401.44;;;16.89;100.00
12969;BME280;6549;53.128;8.182;2023-07-29T01:39:29;100395.53;;;16.87;100.00
12969;BME280;6549;53.128;8.182;2023-07-29T01:42:33;100403.63;;;16.81;100.00
12969;BME280;6549;53.128;8.182;2023-07-29T01:45:33;100402.47;;;16.79;100.00
12969;BME280;6549;53.128;8.182;2023-07-29T01:48:38;100406.13;;;16.76;100.00
12969;BME280;6549;53.128;8.182;2023-07-29T01:51:38;100403.00;;;16.74;100.00
12969;BME280;6549;53.128;8.182;2023-07-29T01:54:38;100408.53;;;16.74;100.00
12969;BME280;6549;53.128;8.182;2023-07-29T01:57:39;100407.75;;;16.73;100.00
12969;BME280;6549;53.128;8.182;2023-07-29T02:00:39;100416.53;;;16.72;100.00
12969;BME280;6549;53.128;8.182;2023-07-29T02:03:40;100410.63;;;16.70;100.00
12969;BME280;6549;53.128;8.182;2023-07-29T02:06:40;100400.31;;;16.70;100.00
12969;BME280;6549;53.128;8.182;2023-07-29T02:09:40;100407.19;;;16.66;100.00
12969;BME280;6549;53.128;8.182;2023-07-29T02:12:41;100392.97;;;16.64;100.00
12969;BME280;6549;53.128;8.182;2023-07-29T02:15:41;100396.19;;;16.62;100.00
12969;BME280;6549;53.128;8.182;2023-07-29T02:18:41;100399.38;;;16.60;100.00
12969;BME280;6549;53.128;8.182;2023-07-29T02:21:42;100400.25;;;16.57;100.00
12969;BME280;6549;53.128;8.182;2023-07-29T02:24:42;100403.41;;;16.56;100.00
12969;BME280;6549;53.128;8.182;2023-07-29T02:27:42;100397.47;;;16.57;100.00
12969;BME280;6549;53.128;8.182;2023-07-29T02:30:42;100397.47;;;16.57;100.00
12969;BME280;6549;53.128;8.182;2023-07-29T02:33:46;100395.81;;;16.60;100.00
12969;BME280;6549;53.128;8.182;2023-07-29T02:36:46;100389.75;;;16.65;100.00
12969;BME280;6549;53.128;8.182;2023-07-29T02:39:47;100391.22;;;16.70;100.00
12969;BME280;6549;53.128;8.182;2023-07-29T02:42:47;100382.78;;;16.73;100.00
12969;BME280;6549;53.128;8.182;2023-07-29T02:45:47;100381.16;;;16.76;100.00
12969;BME280;6549;53.128;8.182;2023-07-29T02:48:49;100399.81;;;16.75;100.00
12969;BME280;6549;53.128;8.182;2023-07-29T02:51:49;100404.94;;;16.77;100.00
12969;BME280;6549;53.128;8.182;2023-07-29T02:54:49;100396.94;;;16.79;100.00
12969;BME280;6549;53.128;8.182;2023-07-29T02:57:50;100398.06;;;16.81;100.00
12969;BME280;6549;53.128;8.182;2023-07-29T03:00:50;100396.81;;;16.82;100.00
12969;BME280;6549;53.128;8.182;2023-07-29T03:03:51;100388.44;;;16.86;100.00
12969;BME280;6549;53.128;8.182;2023-07-29T03:06:51;100387.19;;;16.87;100.00
12969;BME280;6549;53.128;8.182;2023-07-29T03:09:51;100389.13;;;16.90;100.00
12969;BME280;6549;53.128;8.182;2023-07-29T03:12:54;100390.56;;;16.94;100.00
12969;BME280;6549;53.128;8.182;2023-07-29T03:16:07;100395.66;;;16.96;100.00
12969;BME280;6549;53.128;8.182;2023-07-29T03:19:08;100401.59;;;16.98;100.00
12969;BME280;6549;53.128;8.182;2023-07-29T03:22:08;100408.69;;;16.99;100.00
12969;BME280;6549;53.128;8.182;2023-07-29T03:25:08;100406.25;;;17.01;100.00
12969;BME280;6549;53.128;8.182;2023-07-29T03:28:09;100397.38;;;17.06;100.00
12969;BME280;6549;53.128;8.182;2023-07-29T03:31:10;100406.06;;;17.08;100.00
12969;BME280;6549;53.128;8.182;2023-07-29T03:34:10;100398.06;;;17.10;100.00
12969;BME280;6549;53.128;8.182;2023-07-29T03:37:12;100398.50;;;17.08;100.00
12969;BME280;6549;53.128;8.182;2023-07-29T03:40:12;100400.53;;;17.08;100.00
12969;BME280;6549;53.128;8.182;2023-07-29T03:43:13;100395.72;;;17.08;100.00
12969;BME280;6549;53.128;8.182;2023-07-29T03:46:13;100386.63;;;17.08;100.00
12969;BME280;6549;53.128;8.182;2023-07-29T03:49:14;100397.75;;;17.08;100.00
12969;BME280;6549;53.128;8.182;2023-07-29T03:52:14;100382.63;;;17.09;100.00
12969;BME280;6549;53.128;8.182;2023-07-29T03:55:14;100390.94;;;17.09;100.00
12969;BME280;6549;53.128;8.182;2023-07-29T03:58:15;100377.06;;;17.09;100.00
12969;BME280;6549;53.128;8.182;2023-07-29T04:01:15;100385.06;;;17.07;100.00
12969;BME280;6549;53.128;8.182;2023-07-29T04:04:15;100379.94;;;17.05;100.00
12969;BME280;6549;53.128;8.182;2023-07-29T04:07:16;100379.16;;;17.05;100.00
12969;BME280;6549;53.128;8.182;2023-07-29T04:10:16;100390.38;;;17.01;100.00
12969;BME280;6549;53.128;8.182;2023-07-29T04:13:16;100387.69;;;16.98;100.00
12969;BME280;6549;53.128;8.182;2023-07-29T04:16:17;100384.94;;;16.98;100.00
12969;BME280;6549;53.128;8.182;2023-07-29T04:19:17;100376.13;;;16.99;100.00
12969;BME280;6549;53.128;8.182;2023-07-29T04:22:17;100389.59;;;17.01;100.00
12969;BME280;6549;53.128;8.182;2023-07-29T04:25:18;100375.19;;;17.06;100.00
12969;BME280;6549;53.128;8.182;2023-07-29T04:28:18;100381.41;;;17.10;100.00
12969;BME280;6549;53.128;8.182;2023-07-29T04:31:19;100380.53;;;17.13;100.00
12969;BME280;6549;53.128;8.182;2023-07-29T04:34:19;100377.69;;;17.17;100.00
12969;BME280;6549;53.128;8.182;2023-07-29T04:37:19;100376.34;;;17.21;100.00
12969;BME280;6549;53.128;8.182;2023-07-29T04:40:20;100380.91;;;17.28;100.00
12969;BME280;6549;53.128;8.182;2023-07-29T04:43:20;100378.50;;;17.30;100.00
12969;BME280;6549;53.128;8.182;2023-07-29T04:46:20;100372.47;;;17.31;100.00
12969;BME280;6549;53.128;8.182;2023-07-29T04:49:21;100373.16;;;17.35;100.00
12969;BME280;6549;53.128;8.182;2023-07-29T04:52:21;100364.75;;;17.39;100.00
12969;BME280;6549;53.128;8.182;2023-07-29T04:55:21;100366.19;;;17.43;100.00
12969;BME280;6549;53.128;8.182;2023-07-29T04:58:22;100361.31;;;17.47;100.00
12969;BME280;6549;53.128;8.182;2023-07-29T05:01:22;100357.97;;;17.52;100.00
12969;BME280;6549;53.128;8.182;2023-07-29T05:04:23;100349.03;;;17.61;100.00
12969;BME280;6549;53.128;8.182;2023-07-29T05:07:23;100342.88;;;17.66;100.00
12969;BME280;6549;53.128;8.182;2023-07-29T05:10:24;100340.69;;;17.74;100.00
12969;BME280;6549;53.128;8.182;2023-07-29T05:13:25;100335.81;;;17.78;100.00
12969;BME280;6549;53.128;8.182;2023-07-29T05:16:25;100343.91;;;17.85;100.00
12969;BME280;6549;53.128;8.182;2023-07-29T05:19:25;100344.25;;;17.87;100.00
12969;BME280;6549;53.128;8.182;2023-07-29T05:22:25;100348.13;;;17.89;100.00
12969;BME280;6549;53.128;8.182;2023-07-29T05:25:26;100347.69;;;17.91;100.00
12969;BME280;6549;53.128;8.182;2023-07-29T05:28:26;100355.91;;;17.94;100.00
12969;BME280;6549;53.128;8.182;2023-07-29T05:31:27;100352.34;;;17.94;100.00
12969;BME280;6549;53.128;8.182;2023-07-29T05:34:28;100355.13;;;17.94;100.00
12969;BME280;6549;53.128;8.182;2023-07-29T05:37:28;100353.69;;;18.02;100.00
12969;BME280;6549;53.128;8.182;2023-07-29T05:40:28;100351.91;;;18.08;100.00
12969;BME280;6549;53.128;8.182;2023-07-29T05:43:28;100353.78;;;18.11;100.00
12969;BME280;6549;53.128;8.182;2023-07-29T05:46:29;100347.34;;;18.14;100.00
12969;BME280;6549;53.128;8.182;2023-07-29T05:49:29;100354.34;;;18.19;100.00
12969;BME280;6549;53.128;8.182;2023-07-29T05:52:33;100363.66;;;18.25;100.00
12969;BME280;6549;53.128;8.182;2023-07-29T05:55:33;100348.66;;;18.22;100.00
12969;BME280;6549;53.128;8.182;2023-07-29T05:58:34;100340.75;;;18.21;100.00
12969;BME280;6549;53.128;8.182;2023-07-29T06:01:34;100342.56;;;18.27;100.00
12969;BME280;6549;53.128;8.182;2023-07-29T06:04:35;100342.31;;;18.34;100.00
12969;BME280;6549;53.128;8.182;2023-07-29T06:07:35;100346.88;;;18.28;100.00
12969;BME280;6549;53.128;8.182;2023-07-29T06:10:35;100353.88;;;18.33;100.00
12969;BME280;6549;53.128;8.182;2023-07-29T06:13:35;100363.66;;;18.37;100.00
12969;BME280;6549;53.128;8.182;2023-07-29T06:16:36;100360.00;;;18.40;100.00
12969;BME280;6549;53.128;8.182;2023-07-29T06:19:36;100355.88;;;18.45;100.00
12969;BME280;6549;53.128;8.182;2023-07-29T06:22:37;100347.84;;;18.47;100.00
12969;BME280;6549;53.128;8.182;2023-07-29T06:25:37;100353.94;;;18.55;100.00
12969;BME280;6549;53.128;8.182;2023-07-29T06:28:37;100356.16;;;18.60;100.00
12969;BME280;6549;53.128;8.182;2023-07-29T06:31:38;100348.16;;;18.62;100.00
12969;BME280;6549;53.128;8.182;2023-07-29T06:34:38;100352.81;;;18.65;100.00
12969;BME280;6549;53.128;8.182;2023-07-29T06:37:38;100344.91;;;18.63;100.00
12969;BME280;6549;53.128;8.182;2023-07-29T06:40:39;100345.91;;;18.69;100.00
12969;BME280;6549;53.128;8.182;2023-07-29T06:43:39;100348.31;;;18.80;100.00
12969;BME280;6549;53.128;8.182;2023-07-29T06:46:39;100344.97;;;18.85;100.00
12969;BME280;6549;53.128;8.182;2023-07-29T06:49:40;100344.13;;;18.97;100.00
12969;BME280;6549;53.128;8.182;2023-07-29T06:52:40;100338.22;;;19.17;100.00
12969;BME280;6549;53.128;8.182;2023-07-29T06:55:40;100341.84;;;19.26;100.00
12969;BME280;6549;53.128;8.182;2023-07-29T06:58:41;100343.72;;;19.29;100.00
12969;BME280;6549;53.128;8.182;2023-07-29T07:01:41;100352.53;;;19.28;100.00
12969;BME280;6549;53.128;8.182;2023-07-29T07:04:42;100352.53;;;19.28;100.00
12969;BME280;6549;53.128;8.182;2023-07-29T07:07:42;100350.16;;;19.17;100.00
12969;BME280;6549;53.128;8.182;2023-07-29T07:10:42;100362.91;;;19.27;100.00
12969;BME280;6549;53.128;8.182;2023-07-29T07:13:43;100354.22;;;19.25;100.00
12969;BME280;6549;53.128;8.182;2023-07-29T07:16:43;100359.13;;;19.21;100.00
12969;BME280;6549;53.128;8.182;2023-07-29T07:19:43;100352.06;;;19.08;100.00
12969;BME280;6549;53.128;8.182;2023-07-29T07:22:44;100367.56;;;19.09;100.00
12969;BME280;6549;53.128;8.182;2023-07-29T07:25:44;100368.69;;;19.11;100.00
12969;BME280;6549;53.128;8.182;2023-07-29T07:28:44;100364.00;;;19.08;100.00
12969;BME280;6549;53.128;8.182;2023-07-29T07:31:53;100367.19;;;19.19;100.00
12969;BME280;6549;53.128;8.182;2023-07-29T07:34:53;100371.00;;;19.35;100.00
12969;BME280;6549;53.128;8.182;2023-07-29T07:37:53;100374.13;;;19.37;100.00
12969;BME280;6549;53.128;8.182;2023-07-29T07:40:55;100370.06;;;19.50;100.00
12969;BME280;6549;53.128;8.182;2023-07-29T07:43:56;100371.91;;;19.53;100.00
12969;BME280;6549;53.128;8.182;2023-07-29T07:46:56;100371.78;;;19.57;100.00
12969;BME280;6549;53.128;8.182;2023-07-29T07:49:56;100370.81;;;19.51;100.00
12969;BME280;6549;53.128;8.182;2023-07-29T07:52:56;100375.44;;;19.45;100.00
12969;BME280;6549;53.128;8.182;2023-07-29T07:55:57;100368.53;;;19.37;100.00
12969;BME280;6549;53.128;8.182;2023-07-29T07:58:57;100367.41;;;19.47;100.00
12969;BME280;6549;53.128;8.182;2023-07-29T08:01:57;100373.34;;;19.58;100.00
12969;BME280;6549;53.128;8.182;2023-07-29T08:04:58;100369.03;;;19.66;100.00
12969;BME280;6549;53.128;8.182;2023-07-29T08:07:58;100375.59;;;19.72;100.00
12969;BME280;6549;53.128;8.182;2023-07-29T08:10:58;100361.44;;;19.97;100.00
12969;BME280;6549;53.128;8.182;2023-07-29T08:13:59;100362.06;;;20.41;100.00
12969;BME280;6549;53.128;8.182;2023-07-29T08:16:59;100358.81;;;20.43;100.00
12969;BME280;6549;53.128;8.182;2023-07-29T08:19:59;100361.38;;;20.28;100.00
12969;BME280;6549;53.128;8.182;2023-07-29T08:23:00;100360.97;;;20.39;100.00
12969;BME280;6549;53.128;8.182;2023-07-29T08:26:04;100365.34;;;20.49;100.00
12969;BME280;6549;53.128;8.182;2023-07-29T08:29:05;100360.66;;;20.46;100.00
12969;BME280;6549;53.128;8.182;2023-07-29T08:32:05;100360.97;;;20.39;100.00
12969;BME280;6549;53.128;8.182;2023-07-29T08:35:06;100357.09;;;20.36;100.00
12969;BME280;6549;53.128;8.182;2023-07-29T08:38:06;100360.03;;;20.42;100.00
12969;BME280;6549;53.128;8.182;2023-07-29T08:41:19;100361.31;;;20.59;100.00
12969;BME280;6549;53.128;8.182;2023-07-29T08:44:23;100370.31;;;20.63;100.00
12969;BME280;6549;53.128;8.182;2023-07-29T08:47:26;100361.31;;;20.68;100.00
12969;BME280;6549;53.128;8.182;2023-07-29T08:50:26;100365.09;;;21.20;100.00
12969;BME280;6549;53.128;8.182;2023-07-29T08:53:27;100367.25;;;21.85;100.00
12969;BME280;6549;53.128;8.182;2023-07-29T08:56:28;100366.56;;;22.08;100.00
12969;BME280;6549;53.128;8.182;2023-07-29T08:59:30;100362.97;;;22.08;100.00
12969;BME280;6549;53.128;8.182;2023-07-29T09:02:30;100355.97;;;22.12;100.00
12969;BME280;6549;53.128;8.182;2023-07-29T09:05:33;100353.81;;;22.07;100.00
12969;BME280;6549;53.128;8.182;2023-07-29T09:08:34;100344.38;;;22.52;100.00
12969;BME280;6549;53.128;8.182;2023-07-29T09:11:35;100347.34;;;22.72;100.00
12969;BME280;6549;53.128;8.182;2023-07-29T09:14:35;100343.88;;;22.77;100.00
12969;BME280;6549;53.128;8.182;2023-07-29T09:17:35;100350.66;;;22.86;100.00
12969;BME280;6549;53.128;8.182;2023-07-29T09:20:36;100361.91;;;23.15;100.00
12969;BME280;6549;53.128;8.182;2023-07-29T09:23:41;100360.00;;;23.21;100.00
12969;BME280;6549;53.128;8.182;2023-07-29T09:26:48;100349.16;;;22.99;100.00
12969;BME280;6549;53.128;8.182;2023-07-29T09:29:49;100341.72;;;23.11;100.00
12969;BME280;6549;53.128;8.182;2023-07-29T09:32:55;100352.28;;;23.60;100.00
12969;BME280;6549;53.128;8.182;2023-07-29T09:35:56;100348.44;;;24.07;100.00
12969;BME280;6549;53.128;8.182;2023-07-29T09:38:56;100335.66;;;23.56;100.00
12969;BME280;6549;53.128;8.182;2023-07-29T09:41:57;100339.63;;;23.35;100.00
12969;BME280;6549;53.128;8.182;2023-07-29T09:44:57;100342.06;;;22.89;100.00
12969;BME280;6549;53.128;8.182;2023-07-29T09:47:57;100338.09;;;22.57;100.00
12969;BME280;6549;53.128;8.182;2023-07-29T09:50:59;100344.06;;;22.50;100.00
12969;BME280;6549;53.128;8.182;2023-07-29T09:54:02;100328.38;;;23.06;100.00
12969;BME280;6549;53.128;8.182;2023-07-29T09:57:03;100331.72;;;23.63;100.00
12969;BME280;6549;53.128;8.182;2023-07-29T10:00:03;100335.09;;;24.02;100.00
12969;BME280;6549;53.128;8.182;2023-07-29T10:03:07;100338.06;;;23.78;100.00
12969;BME280;6549;53.128;8.182;2023-07-29T10:06:08;100338.16;;;23.40;100.00
12969;BME280;6549;53.128;8.182;2023-07-29T10:09:10;100337.53;;;22.92;100.00
12969;BME280;6549;53.128;8.182;2023-07-29T10:12:11;100336.84;;;22.58;100.00
12969;BME280;6549;53.128;8.182;2023-07-29T10:15:12;100326.41;;;22.59;100.00
12969;BME280;6549;53.128;8.182;2023-07-29T10:18:12;100329.06;;;23.01;100.00
12969;BME280;6549;53.128;8.182;2023-07-29T10:21:13;100330.63;;;23.60;100.00
12969;BME280;6549;53.128;8.182;2023-07-29T10:24:15;100329.28;;;23.70;100.00
12969;BME280;6549;53.128;8.182;2023-07-29T10:27:19;100341.16;;;24.15;100.00
12969;BME280;6549;53.128;8.182;2023-07-29T10:30:19;100338.31;;;24.30;100.00
12969;BME280;6549;53.128;8.182;2023-07-29T10:33:20;100336.16;;;24.59;100.00
12969;BME280;6549;53.128;8.182;2023-07-29T10:36:20;100336.22;;;24.25;100.00
12969;BME280;6549;53.128;8.182;2023-07-29T10:39:21;100337.34;;;23.98;100.00
12969;BME280;6549;53.128;8.182;2023-07-29T10:42:21;100338.84;;;23.79;100.00
12969;BME280;6549;53.128;8.182;2023-07-29T10:45:22;100337.97;;;23.72;100.00
12969;BME280;6549;53.128;8.182;2023-07-29T10:51:36;100336.03;;;23.64;100.00
12969;BME280;6549;53.128;8.182;2023-07-29T10:54:45;100344.72;;;23.22;100.00
12969;BME280;6549;53.128;8.182;2023-07-29T10:57:45;100344.00;;;22.59;100.00
12969;BME280;6549;53.128;8.182;2023-07-29T11:00:46;100350.72;;;22.29;100.00
12969;BME280;6549;53.128;8.182;2023-07-29T11:04:01;100349.28;;;22.10;100.00
12969;BME280;6549;53.128;8.182;2023-07-29T11:10:08;100345.91;;;21.97;100.00
12969;BME280;6549;53.128;8.182;2023-07-29T11:13:08;100352.13;;;21.91;100.00
12969;BME280;6549;53.128;8.182;2023-07-29T11:16:10;100350.44;;;21.94;100.00
12969;BME280;6549;53.128;8.182;2023-07-29T11:19:14;100358.75;;;22.12;100.00
12969;BME280;6549;53.128;8.182;2023-07-29T11:22:18;100358.94;;;22.32;100.00
12969;BME280;6549;53.128;8.182;2023-07-29T11:25:18;100348.03;;;22.58;100.00
12969;BME280;6549;53.128;8.182;2023-07-29T11:28:19;100345.44;;;22.78;100.00
12969;BME280;6549;53.128;8.182;2023-07-29T11:31:19;100356.59;;;23.02;100.00
12969;BME280;6549;53.128;8.182;2023-07-29T11:34:31;100341.25;;;23.27;100.00
12969;BME280;6549;53.128;8.182;2023-07-29T11:37:33;100350.81;;;23.94;100.00
12969;BME280;6549;53.128;8.182;2023-07-29T11:40:33;100348.06;;;24.34;100.00
12969;BME280;6549;53.128;8.182;2023-07-29T11:43:37;100346.69;;;24.85;100.00
12969;BME280;6549;53.128;8.182;2023-07-29T11:46:37;100354.19;;;25.14;100.00
12969;BME280;6549;53.128;8.182;2023-07-29T11:49:39;100337.25;;;25.08;100.00
12969;BME280;6549;53.128;8.182;2023-07-29T11:52:41;100334.66;;;25.30;100.00
12969;BME280;6549;53.128;8.182;2023-07-29T11:55:41;100338.06;;;25.66;100.00
12969;BME280;6549;53.128;8.182;2023-07-29T11:58:42;100342.78;;;25.80;100.00
12969;BME280;6549;53.128;8.182;2023-07-29T12:01:42;100335.53;;;26.05;100.00
12969;BME280;6549;53.128;8.182;2023-07-29T12:04:44;100339.06;;;26.00;100.00
12969;BME280;6549;53.128;8.182;2023-07-29T12:07:45;100349.59;;;26.05;100.00
12969;BME280;6549;53.128;8.182;2023-07-29T12:10:45;100339.75;;;26.20;100.00
12969;BME280;6549;53.128;8.182;2023-07-29T12:13:46;100332.09;;;26.26;100.00
12969;BME280;6549;53.128;8.182;2023-07-29T12:16:48;100337.72;;;26.26;98.67
12969;BME280;6549;53.128;8.182;2023-07-29T12:19:49;100327.63;;;26.09;98.73
12969;BME280;6549;53.128;8.182;2023-07-29T12:22:57;100338.47;;;26.21;95.19
12969;BME280;6549;53.128;8.182;2023-07-29T12:25:58;100340.66;;;25.69;98.15
12969;BME280;6549;53.128;8.182;2023-07-29T12:28:59;100345.03;;;25.70;100.00
12969;BME280;6549;53.128;8.182;2023-07-29T12:32:02;100337.38;;;25.76;100.00
12969;BME280;6549;53.128;8.182;2023-07-29T12:35:02;100330.84;;;25.59;100.00
12969;BME280;6549;53.128;8.182;2023-07-29T12:38:03;100332.47;;;25.40;100.00
12969;BME280;6549;53.128;8.182;2023-07-29T12:41:03;100327.78;;;25.31;100.00
12969;BME280;6549;53.128;8.182;2023-07-29T12:44:05;100328.56;;;25.58;100.00
12969;BME280;6549;53.128;8.182;2023-07-29T12:47:06;100324.50;;;26.01;100.00
12969;BME280;6549;53.128;8.182;2023-07-29T12:50:08;100326.47;;;26.26;100.00
12969;BME280;6549;53.128;8.182;2023-07-29T12:53:09;100326.50;;;25.95;96.40
12969;BME280;6549;53.128;8.182;2023-07-29T12:56:13;100315.31;;;25.69;100.00
12969;BME280;6549;53.128;8.182;2023-07-29T12:59:13;100305.84;;;25.41;100.00
12969;BME280;6549;53.128;8.182;2023-07-29T13:02:13;100308.78;;;25.52;100.00
12969;BME280;6549;53.128;8.182;2023-07-29T13:05:13;100314.84;;;25.45;100.00
12969;BME280;6549;53.128;8.182;2023-07-29T13:08:14;100317.50;;;25.28;100.00
12969;BME280;6549;53.128;8.182;2023-07-29T13:11:17;100331.09;;;25.04;100.00
12969;BME280;6549;53.128;8.182;2023-07-29T13:14:18;100320.72;;;25.16;100.00
12969;BME280;6549;53.128;8.182;2023-07-29T13:17:18;100330.06;;;25.33;100.00
12969;BME280;6549;53.128;8.182;2023-07-29T13:20:18;100334.66;;;25.87;100.00
12969;BME280;6549;53.128;8.182;2023-07-29T13:23:19;100329.63;;;25.66;100.00
12969;BME280;6549;53.128;8.182;2023-07-29T13:26:19;100318.28;;;25.29;100.00
12969;BME280;6549;53.128;8.182;2023-07-29T13:29:19;100311.66;;;25.32;100.00
12969;BME280;6549;53.128;8.182;2023-07-29T13:32:20;100310.34;;;25.27;100.00
12969;BME280;6549;53.128;8.182;2023-07-29T13:35:20;100313.22;;;25.07;100.00
12969;BME280;6549;53.128;8.182;2023-07-29T13:38:20;100326.16;;;24.79;100.00
12969;BME280;6549;53.128;8.182;2023-07-29T13:41:21;100320.28;;;24.56;100.00
12969;BME280;6549;53.128;8.182;2023-07-29T13:44:21;100332.56;;;24.39;100.00
12969;BME280;6549;53.128;8.182;2023-07-29T13:47:21;100336.06;;;24.74;100.00
12969;BME280;6549;53.128;8.182;2023-07-29T13:50:22;100321.13;;;24.63;100.00
12969;BME280;6549;53.128;8.182;2023-07-29T13:53:22;100333.81;;;24.17;100.00
12969;BME280;6549;53.128;8.182;2023-07-29T13:56:22;100343.19;;;23.80;100.00
12969;BME280;6549;53.128;8.182;2023-07-29T13:59:22;100340.00;;;23.43;100.00
12969;BME280;6549;53.128;8.182;2023-07-29T14:02:23;100348.19;;;23.17;100.00
12969;BME280;6549;53.128;8.182;2023-07-29T14:05:23;100345.88;;;23.01;100.00
12969;BME280;6549;53.128;8.182;2023-07-29T14:08:24;100354.06;;;22.90;100.00
12969;BME280;6549;53.128;8.182;2023-07-29T14:11:24;100369.09;;;22.77;100.00
12969;BME280;6549;53.128;8.182;2023-07-29T14:14:24;100369.50;;;22.61;100.00
12969;BME280;6549;53.128;8.182;2023-07-29T14:17:24;100359.59;;;22.51;100.00
12969;BME280;6549;53.128;8.182;2023-07-29T14:20:25;100357.59;;;22.75;100.00
12969;BME280;6549;53.128;8.182;2023-07-29T14:23:25;100362.34;;;23.22;100.00
12969;BME280;6549;53.128;8.182;2023-07-29T14:26:26;100363.81;;;23.62;100.00
12969;BME280;6549;53.128;8.182;2023-07-29T14:29:26;100367.34;;;23.92;100.00
12969;BME280;6549;53.128;8.182;2023-07-29T14:32:26;100365.09;;;24.25;100.00
12969;BME280;6549;53.128;8.182;2023-07-29T14:35:27;100357.56;;;24.37;100.00
12969;BME280;6549;53.128;8.182;2023-07-29T14:38:27;100355.69;;;24.69;100.00
12969;BME280;6549;53.128;8.182;2023-07-29T14:41:28;100357.94;;;24.85;100.00
12969;BME280;6549;53.128;8.182;2023-07-29T14:44:28;100357.22;;;24.70;100.00
12969;BME280;6549;53.128;8.182;2023-07-29T14:47:28;100358.25;;;24.87;100.00
12969;BME280;6549;53.128;8.182;2023-07-29T14:50:32;100353.84;;;25.06;100.00
12969;BME280;6549;53.128;8.182;2023-07-29T14:53:33;100352.91;;;25.15;100.00
12969;BME280;6549;53.128;8.182;2023-07-29T14:56:33;100359.97;;;25.04;100.00
12969;BME280;6549;53.128;8.182;2023-07-29T14:59:33;100353.38;;;24.67;100.00
12969;BME280;6549;53.128;8.182;2023-07-29T15:02:33;100353.84;;;24.45;100.00
12969;BME280;6549;53.128;8.182;2023-07-29T15:05:34;100361.69;;;24.21;100.00
12969;BME280;6549;53.128;8.182;2023-07-29T15:08:34;100357.88;;;23.89;100.00
12969;BME280;6549;53.128;8.182;2023-07-29T15:11:35;100370.00;;;23.81;100.00
12969;BME280;6549;53.128;8.182;2023-07-29T15:14:36;100361.38;;;23.55;100.00
12969;BME280;6549;53.128;8.182;2023-07-29T15:17:37;100359.25;;;23.35;100.00
12969;BME280;6549;53.128;8.182;2023-07-29T15:20:37;100361.25;;;23.20;100.00
12969;BME280;6549;53.128;8.182;2023-07-29T15:23:38;100371.97;;;23.07;100.00
12969;BME280;6549;53.128;8.182;2023-07-29T15:26:38;100369.69;;;22.81;100.00
12969;BME280;6549;53.128;8.182;2023-07-29T15:29:38;100373.25;;;22.58;100.00
12969;BME280;6549;53.128;8.182;2023-07-29T15:32:38;100391.53;;;22.21;100.00
12969;BME280;6549;53.128;8.182;2023-07-29T15:35:39;100394.91;;;21.74;100.00
12969;BME280;6549;53.128;8.182;2023-07-29T15:38:39;100401.53;;;21.25;100.00
12969;BME280;6549;53.128;8.182;2023-07-29T15:41:40;100401.03;;;20.72;100.00
12969;BME280;6549;53.128;8.182;2023-07-29T15:44:40;100410.44;;;20.38;100.00
12969;BME280;6549;53.128;8.182;2023-07-29T15:47:40;100392.38;;;20.21;100.00
12969;BME280;6549;53.128;8.182;2023-07-29T15:50:41;100387.66;;;20.00;100.00
12969;BME280;6549;53.128;8.182;2023-07-29T15:53:42;100399.09;;;20.02;100.00
12969;BME280;6549;53.128;8.182;2023-07-29T15:56:42;100401.16;;;20.10;100.00
12969;BME280;6549;53.128;8.182;2023-07-29T15:59:42;100397.13;;;20.11;100.00